ARG1567 SACO-SABE
Flight info
| Callsign | ARG1567 |
|---|---|
| Flight time | 0h 55m |
| Altitude | 35000 |
| Route | UTRAX1C UTRAX UW24 SNT |
| Aircraft | B738/M-SDE2E3FGHIRWXY/LB1 |
Departure
| Time | 2026-05-04 23:05 |
|---|---|
| Airport | Ingeniero Aeronáutico Ambrosio L.V. Taravella International Airport (SACO) |
Arrival
| Time | 2026-05-05 00:01 |
|---|---|
| Airport | Aeroparque Jorge Newbery (SABE) |
| Time | Latitude | Longitude | Altitude | Speed | Heading |
|---|---|---|---|---|---|
| 2026-05-04 22:19 | -31.31552 | -64.21168 | 1560 ft | 0 kts | 259° |
| 2026-05-04 22:54 | -31.31551 | -64.21165 | 1560 ft | 2 kts | 255° |
| 2026-05-04 22:54 | -31.31550 | -64.21151 | 1560 ft | 3 kts | 253° |
| 2026-05-04 22:54 | -31.31540 | -64.21135 | 1560 ft | 3 kts | 230° |
| 2026-05-04 22:55 | -31.31529 | -64.21116 | 1560 ft | 3 kts | 246° |
| 2026-05-04 22:55 | -31.31522 | -64.21094 | 1560 ft | 3 kts | 253° |
| 2026-05-04 22:55 | -31.31516 | -64.21077 | 1560 ft | 3 kts | 207° |
| 2026-05-04 22:55 | -31.31509 | -64.21074 | 1560 ft | 1 kts | 188° |
| 2026-05-04 22:56 | -31.31508 | -64.21074 | 1560 ft | 0 kts | 188° |
| 2026-05-04 22:59 | -31.31519 | -64.21076 | 1560 ft | 3 kts | 190° |
| 2026-05-04 23:00 | -31.31543 | -64.21084 | 1560 ft | 4 kts | 198° |
| 2026-05-04 23:00 | -31.31566 | -64.21093 | 1560 ft | 3 kts | 198° |
| 2026-05-04 23:00 | -31.31589 | -64.21099 | 1560 ft | 3 kts | 186° |
| 2026-05-04 23:00 | -31.31613 | -64.21101 | 1560 ft | 3 kts | 185° |
| 2026-05-04 23:01 | -31.31636 | -64.21102 | 1560 ft | 4 kts | 181° |
| 2026-05-04 23:01 | -31.31668 | -64.21102 | 1560 ft | 6 kts | 179° |
| 2026-05-04 23:01 | -31.31718 | -64.21096 | 1560 ft | 8 kts | 159° |
| 2026-05-04 23:01 | -31.31760 | -64.21058 | 1560 ft | 8 kts | 142° |
| 2026-05-04 23:02 | -31.31806 | -64.21032 | 1560 ft | 7 kts | 166° |
| 2026-05-04 23:02 | -31.31856 | -64.21027 | 1560 ft | 7 kts | 176° |
| 2026-05-04 23:02 | -31.31911 | -64.21025 | 1560 ft | 9 kts | 178° |
| 2026-05-04 23:02 | -31.31986 | -64.21023 | 1560 ft | 12 kts | 181° |
| 2026-05-04 23:03 | -31.32078 | -64.21024 | 1560 ft | 13 kts | 179° |
| 2026-05-04 23:03 | -31.32169 | -64.21022 | 1560 ft | 13 kts | 176° |
| 2026-05-04 23:03 | -31.32258 | -64.21022 | 1560 ft | 13 kts | 180° |
| 2026-05-04 23:03 | -31.32344 | -64.21020 | 1560 ft | 12 kts | 175° |
| 2026-05-04 23:04 | -31.32417 | -64.20980 | 1560 ft | 11 kts | 131° |
| 2026-05-04 23:04 | -31.32429 | -64.20899 | 1560 ft | 10 kts | 73° |
| 2026-05-04 23:04 | -31.32392 | -64.20835 | 1559 ft | 9 kts | 47° |
| 2026-05-04 23:04 | -31.32340 | -64.20772 | 1559 ft | 15 kts | 46° |
| 2026-05-04 23:05 | -31.32170 | -64.20581 | 1560 ft | 68 kts | 43° |
| 2026-05-04 23:05 | -31.31653 | -64.19998 | 1560 ft | 136 kts | 43° |
| 2026-05-04 23:05 | -31.30842 | -64.19162 | 1923 ft | 158 kts | 41° |
| 2026-05-04 23:05 | -31.30070 | -64.18290 | 2825 ft | 153 kts | 51° |
| 2026-05-04 23:06 | -31.29770 | -64.16968 | 3177 ft | 198 kts | 89° |
| 2026-05-04 23:06 | -31.30417 | -64.15418 | 3515 ft | 227 kts | 127° |
| 2026-05-04 23:06 | -31.31582 | -64.14175 | 4198 ft | 228 kts | 137° |
| 2026-05-04 23:06 | -31.32802 | -64.12937 | 4748 ft | 239 kts | 136° |
| 2026-05-04 23:07 | -31.34100 | -64.11608 | 5124 ft | 257 kts | 137° |
| 2026-05-04 23:07 | -31.35519 | -64.10249 | 5661 ft | 268 kts | 140° |
| 2026-05-04 23:07 | -31.36991 | -64.08815 | 6251 ft | 284 kts | 138° |
| 2026-05-04 23:07 | -31.38483 | -64.07229 | 6887 ft | 292 kts | 135° |
| 2026-05-04 23:08 | -31.39904 | -64.05528 | 7795 ft | 290 kts | 133° |
| 2026-05-04 23:08 | -31.41283 | -64.03789 | 8587 ft | 296 kts | 134° |
| 2026-05-04 23:08 | -31.42681 | -64.01995 | 9366 ft | 299 kts | 134° |
| 2026-05-04 23:08 | -31.44066 | -64.00168 | 10157 ft | 302 kts | 133° |
| 2026-05-04 23:09 | -31.45482 | -63.98258 | 10494 ft | 322 kts | 133° |
| 2026-05-04 23:09 | -31.46994 | -63.96182 | 10666 ft | 346 kts | 132° |
| 2026-05-04 23:09 | -31.48573 | -63.93981 | 11079 ft | 358 kts | 132° |
| 2026-05-04 23:09 | -31.50175 | -63.91722 | 11735 ft | 361 kts | 131° |
| 2026-05-04 23:10 | -31.51778 | -63.89445 | 12434 ft | 364 kts | 132° |
| 2026-05-04 23:10 | -31.53393 | -63.87144 | 13087 ft | 368 kts | 132° |
| 2026-05-04 23:10 | -31.55028 | -63.84809 | 13720 ft | 372 kts | 132° |
| 2026-05-04 23:10 | -31.56659 | -63.82477 | 14291 ft | 376 kts | 132° |
| 2026-05-04 23:11 | -31.58327 | -63.80091 | 14899 ft | 379 kts | 132° |
| 2026-05-04 23:11 | -31.60009 | -63.77682 | 15498 ft | 383 kts | 133° |
| 2026-05-04 23:11 | -31.61706 | -63.75250 | 16075 ft | 387 kts | 133° |
| 2026-05-04 23:11 | -31.63423 | -63.72789 | 16653 ft | 391 kts | 133° |
| 2026-05-04 23:12 | -31.65152 | -63.70309 | 17257 ft | 394 kts | 133° |
| 2026-05-04 23:12 | -31.66899 | -63.67802 | 17840 ft | 398 kts | 133° |
| 2026-05-04 23:12 | -31.68643 | -63.65297 | 18365 ft | 402 kts | 133° |
| 2026-05-04 23:12 | -31.70423 | -63.62738 | 18870 ft | 406 kts | 133° |
| 2026-05-04 23:13 | -31.72214 | -63.60162 | 19393 ft | 409 kts | 134° |
| 2026-05-04 23:13 | -31.74018 | -63.57565 | 19910 ft | 412 kts | 134° |
| 2026-05-04 23:13 | -31.75839 | -63.54942 | 20417 ft | 416 kts | 134° |
| 2026-05-04 23:13 | -31.77674 | -63.52296 | 20934 ft | 419 kts | 134° |
| 2026-05-04 23:14 | -31.79526 | -63.49624 | 21445 ft | 423 kts | 134° |
| 2026-05-04 23:14 | -31.81396 | -63.46925 | 21947 ft | 426 kts | 134° |
| 2026-05-04 23:14 | -31.83273 | -63.44212 | 22431 ft | 430 kts | 134° |
| 2026-05-04 23:14 | -31.85168 | -63.41472 | 22915 ft | 433 kts | 134° |
| 2026-05-04 23:15 | -31.87076 | -63.38713 | 23382 ft | 437 kts | 134° |
| 2026-05-04 23:15 | -31.88976 | -63.35962 | 23788 ft | 440 kts | 134° |
| 2026-05-04 23:15 | -31.90896 | -63.33144 | 24188 ft | 443 kts | 134° |
| 2026-05-04 23:15 | -31.92819 | -63.30294 | 24603 ft | 445 kts | 133° |
| 2026-05-04 23:16 | -31.94743 | -63.27430 | 25007 ft | 448 kts | 133° |
| 2026-05-04 23:16 | -31.96682 | -63.24541 | 25383 ft | 451 kts | 133° |
| 2026-05-04 23:16 | -31.98636 | -63.21629 | 25771 ft | 454 kts | 134° |
| 2026-05-04 23:16 | -32.00598 | -63.18705 | 26158 ft | 456 kts | 134° |
| 2026-05-04 23:17 | -32.02573 | -63.15762 | 26534 ft | 459 kts | 134° |
| 2026-05-04 23:17 | -32.04560 | -63.12800 | 26893 ft | 461 kts | 134° |
| 2026-05-04 23:17 | -32.06554 | -63.09826 | 27260 ft | 464 kts | 134° |
| 2026-05-04 23:17 | -32.08537 | -63.06868 | 27609 ft | 466 kts | 134° |
| 2026-05-04 23:18 | -32.10553 | -63.03857 | 27968 ft | 469 kts | 134° |
| 2026-05-04 23:18 | -32.12582 | -63.00824 | 28317 ft | 471 kts | 134° |
| 2026-05-04 23:18 | -32.14614 | -62.97784 | 28642 ft | 474 kts | 134° |
| 2026-05-04 23:18 | -32.16659 | -62.94723 | 28989 ft | 476 kts | 134° |
| 2026-05-04 23:19 | -32.18713 | -62.91645 | 29315 ft | 478 kts | 134° |
| 2026-05-04 23:19 | -32.20773 | -62.88555 | 29630 ft | 480 kts | 134° |
| 2026-05-04 23:19 | -32.22848 | -62.85442 | 29922 ft | 483 kts | 134° |
| 2026-05-04 23:19 | -32.24928 | -62.82317 | 30188 ft | 485 kts | 134° |
| 2026-05-04 23:20 | -32.27015 | -62.79179 | 30447 ft | 487 kts | 134° |
| 2026-05-04 23:20 | -32.29114 | -62.76021 | 30729 ft | 488 kts | 134° |
| 2026-05-04 23:20 | -32.31212 | -62.72860 | 31075 ft | 487 kts | 134° |
| 2026-05-04 23:20 | -32.33279 | -62.69742 | 31459 ft | 486 kts | 134° |
| 2026-05-04 23:21 | -32.35359 | -62.66602 | 31813 ft | 485 kts | 134° |
| 2026-05-04 23:21 | -32.37440 | -62.63460 | 32121 ft | 485 kts | 134° |
| 2026-05-04 23:21 | -32.39516 | -62.60324 | 32425 ft | 485 kts | 134° |
| 2026-05-04 23:21 | -32.41600 | -62.57173 | 32755 ft | 485 kts | 134° |
| 2026-05-04 23:22 | -32.43673 | -62.54036 | 33102 ft | 483 kts | 134° |
| 2026-05-04 23:22 | -32.45744 | -62.50898 | 33423 ft | 483 kts | 134° |
| 2026-05-04 23:22 | -32.47816 | -62.47758 | 33720 ft | 483 kts | 134° |
| 2026-05-04 23:22 | -32.49885 | -62.44620 | 34005 ft | 483 kts | 134° |
| 2026-05-04 23:23 | -32.51955 | -62.41476 | 34275 ft | 482 kts | 134° |
| 2026-05-04 23:23 | -32.54016 | -62.38344 | 34524 ft | 482 kts | 134° |
| 2026-05-04 23:23 | -32.56062 | -62.35233 | 34759 ft | 482 kts | 134° |
| 2026-05-04 23:23 | -32.58132 | -62.32080 | 34997 ft | 482 kts | 134° |
| 2026-05-04 23:24 | -32.62260 | -62.25790 | 35007 ft | 485 kts | 134° |
| 2026-05-04 23:24 | -32.66377 | -62.19499 | 35002 ft | 480 kts | 134° |
| 2026-05-04 23:25 | -32.69767 | -62.14275 | 35006 ft | 479 kts | 133° |
| 2026-05-04 23:25 | -32.73603 | -62.07790 | 35010 ft | 479 kts | 130° |
| 2026-05-04 23:26 | -32.77341 | -62.01257 | 35013 ft | 479 kts | 130° |
| 2026-05-04 23:26 | -32.81130 | -61.94692 | 35015 ft | 479 kts | 131° |
| 2026-05-04 23:27 | -32.84930 | -61.88162 | 35002 ft | 484 kts | 130° |
| 2026-05-04 23:27 | -32.88804 | -61.81517 | 35027 ft | 494 kts | 130° |
| 2026-05-04 23:28 | -32.92724 | -61.74771 | 35027 ft | 498 kts | 130° |
| 2026-05-04 23:28 | -32.96669 | -61.67962 | 35027 ft | 499 kts | 130° |
| 2026-05-04 23:29 | -33.00612 | -61.61143 | 35019 ft | 500 kts | 130° |
| 2026-05-04 23:29 | -33.04522 | -61.54370 | 35019 ft | 498 kts | 130° |
| 2026-05-04 23:30 | -33.08449 | -61.47557 | 35023 ft | 497 kts | 130° |
| 2026-05-04 23:30 | -33.12352 | -61.40774 | 35036 ft | 495 kts | 130° |
| 2026-05-04 23:31 | -33.16242 | -61.34001 | 35038 ft | 493 kts | 130° |
| 2026-05-04 23:31 | -33.20109 | -61.27256 | 35039 ft | 492 kts | 130° |
| 2026-05-04 23:32 | -33.23967 | -61.20516 | 35041 ft | 491 kts | 130° |
| 2026-05-04 23:32 | -33.27791 | -61.13822 | 35043 ft | 490 kts | 130° |
| 2026-05-04 23:33 | -33.31616 | -61.07074 | 35046 ft | 490 kts | 129° |
| 2026-05-04 23:33 | -33.33532 | -61.03670 | 34595 ft | 499 kts | 129° |
| 2026-05-04 23:33 | -33.35471 | -61.00226 | 34208 ft | 495 kts | 129° |
| 2026-05-04 23:34 | -33.37384 | -60.96821 | 33748 ft | 492 kts | 129° |
| 2026-05-04 23:34 | -33.39283 | -60.93438 | 33282 ft | 487 kts | 129° |
| 2026-05-04 23:34 | -33.41168 | -60.90081 | 32836 ft | 483 kts | 129° |
| 2026-05-04 23:34 | -33.43035 | -60.86754 | 32409 ft | 479 kts | 129° |
| 2026-05-04 23:35 | -33.44882 | -60.83461 | 31986 ft | 475 kts | 129° |
| 2026-05-04 23:35 | -33.46718 | -60.80186 | 31568 ft | 471 kts | 129° |
| 2026-05-04 23:35 | -33.48537 | -60.76936 | 31152 ft | 468 kts | 129° |
| 2026-05-04 23:35 | -33.50341 | -60.73711 | 30741 ft | 464 kts | 129° |
| 2026-05-04 23:36 | -33.52132 | -60.70506 | 30334 ft | 461 kts | 128° |
| 2026-05-04 23:36 | -33.53891 | -60.67358 | 29927 ft | 458 kts | 128° |
| 2026-05-04 23:36 | -33.55658 | -60.64190 | 29449 ft | 455 kts | 128° |
| 2026-05-04 23:36 | -33.57411 | -60.61044 | 28996 ft | 452 kts | 128° |
| 2026-05-04 23:37 | -33.59148 | -60.57923 | 28556 ft | 448 kts | 128° |
| 2026-05-04 23:37 | -33.60868 | -60.54831 | 28140 ft | 444 kts | 128° |
| 2026-05-04 23:37 | -33.62574 | -60.51764 | 27718 ft | 440 kts | 128° |
| 2026-05-04 23:37 | -33.64266 | -60.48717 | 27304 ft | 437 kts | 128° |
| 2026-05-04 23:38 | -33.65945 | -60.45691 | 26906 ft | 434 kts | 128° |
| 2026-05-04 23:38 | -33.67613 | -60.42685 | 26498 ft | 431 kts | 128° |
| 2026-05-04 23:38 | -33.69268 | -60.39698 | 26084 ft | 428 kts | 128° |
| 2026-05-04 23:38 | -33.70913 | -60.36728 | 25677 ft | 426 kts | 128° |
| 2026-05-04 23:39 | -33.72551 | -60.33766 | 25279 ft | 424 kts | 128° |
| 2026-05-04 23:39 | -33.74180 | -60.30820 | 24861 ft | 422 kts | 128° |
| 2026-05-04 23:39 | -33.75802 | -60.27883 | 24459 ft | 421 kts | 128° |
| 2026-05-04 23:39 | -33.77416 | -60.24958 | 24041 ft | 420 kts | 128° |
| 2026-05-04 23:40 | -33.79007 | -60.22072 | 23640 ft | 418 kts | 128° |
| 2026-05-04 23:40 | -33.80612 | -60.19160 | 23189 ft | 417 kts | 128° |
| 2026-05-04 23:40 | -33.82208 | -60.16261 | 22753 ft | 415 kts | 128° |
| 2026-05-04 23:40 | -33.83798 | -60.13370 | 22328 ft | 412 kts | 128° |
| 2026-05-04 23:41 | -33.85375 | -60.10518 | 22039 ft | 406 kts | 128° |
| 2026-05-04 23:41 | -33.86939 | -60.07716 | 21767 ft | 400 kts | 128° |
| 2026-05-04 23:41 | -33.88490 | -60.04945 | 21421 ft | 397 kts | 128° |
| 2026-05-04 23:41 | -33.90028 | -60.02199 | 21042 ft | 395 kts | 128° |
| 2026-05-04 23:42 | -33.91561 | -59.99459 | 20656 ft | 393 kts | 128° |
| 2026-05-04 23:42 | -33.93082 | -59.96736 | 20273 ft | 391 kts | 128° |
| 2026-05-04 23:42 | -33.94599 | -59.94015 | 19884 ft | 390 kts | 128° |
| 2026-05-04 23:42 | -33.96087 | -59.91344 | 19487 ft | 389 kts | 128° |
| 2026-05-04 23:43 | -33.97593 | -59.88638 | 19093 ft | 388 kts | 128° |
| 2026-05-04 23:43 | -33.99098 | -59.85929 | 18707 ft | 387 kts | 128° |
| 2026-05-04 23:43 | -34.00594 | -59.83236 | 18305 ft | 387 kts | 128° |
| 2026-05-04 23:43 | -34.02088 | -59.80545 | 17875 ft | 386 kts | 128° |
| 2026-05-04 23:44 | -34.03576 | -59.77860 | 17485 ft | 383 kts | 128° |
| 2026-05-04 23:44 | -34.05050 | -59.75198 | 17084 ft | 381 kts | 128° |
| 2026-05-04 23:44 | -34.06515 | -59.72552 | 16697 ft | 378 kts | 128° |
| 2026-05-04 23:44 | -34.07974 | -59.69915 | 16311 ft | 376 kts | 128° |
| 2026-05-04 23:45 | -34.09423 | -59.67293 | 15934 ft | 374 kts | 128° |
| 2026-05-04 23:45 | -34.10840 | -59.64728 | 15557 ft | 371 kts | 128° |
| 2026-05-04 23:45 | -34.12269 | -59.62140 | 15180 ft | 369 kts | 128° |
| 2026-05-04 23:45 | -34.13690 | -59.59564 | 14812 ft | 366 kts | 128° |
| 2026-05-04 23:46 | -34.15099 | -59.57008 | 14449 ft | 364 kts | 128° |
| 2026-05-04 23:46 | -34.16504 | -59.54459 | 14068 ft | 362 kts | 128° |
| 2026-05-04 23:46 | -34.17896 | -59.51931 | 13690 ft | 361 kts | 128° |
| 2026-05-04 23:46 | -34.19263 | -59.49448 | 13291 ft | 359 kts | 128° |
| 2026-05-04 23:47 | -34.20637 | -59.46948 | 12903 ft | 356 kts | 128° |
| 2026-05-04 23:47 | -34.21963 | -59.44419 | 12512 ft | 357 kts | 121° |
| 2026-05-04 23:47 | -34.22682 | -59.41563 | 12340 ft | 353 kts | 104° |
| 2026-05-04 23:47 | -34.23132 | -59.38649 | 11979 ft | 351 kts | 103° |
| 2026-05-04 23:48 | -34.23553 | -59.35746 | 11654 ft | 349 kts | 102° |
| 2026-05-04 23:48 | -34.23968 | -59.32867 | 11305 ft | 347 kts | 102° |
| 2026-05-04 23:48 | -34.24387 | -59.29997 | 10950 ft | 345 kts | 103° |
| 2026-05-04 23:48 | -34.24809 | -59.27149 | 10596 ft | 344 kts | 103° |
| 2026-05-04 23:49 | -34.25236 | -59.24302 | 10303 ft | 341 kts | 103° |
| 2026-05-04 23:49 | -34.25654 | -59.21518 | 10133 ft | 333 kts | 103° |
| 2026-05-04 23:49 | -34.26064 | -59.18804 | 9986 ft | 325 kts | 103° |
| 2026-05-04 23:49 | -34.26461 | -59.16176 | 9858 ft | 317 kts | 103° |
| 2026-05-04 23:50 | -34.26853 | -59.13580 | 9503 ft | 317 kts | 103° |
| 2026-05-04 23:50 | -34.27250 | -59.10961 | 9172 ft | 316 kts | 102° |
| 2026-05-04 23:50 | -34.27645 | -59.08347 | 8849 ft | 315 kts | 102° |
| 2026-05-04 23:50 | -34.28037 | -59.05748 | 8533 ft | 313 kts | 102° |
| 2026-05-04 23:51 | -34.28427 | -59.03160 | 8230 ft | 312 kts | 101° |
| 2026-05-04 23:51 | -34.28813 | -59.00589 | 7926 ft | 310 kts | 101° |
| 2026-05-04 23:51 | -34.29196 | -58.98034 | 7627 ft | 308 kts | 101° |
| 2026-05-04 23:51 | -34.29576 | -58.95496 | 7333 ft | 306 kts | 101° |
| 2026-05-04 23:52 | -34.29954 | -58.92971 | 7036 ft | 304 kts | 100° |
| 2026-05-04 23:52 | -34.30330 | -58.90459 | 6743 ft | 302 kts | 100° |
| 2026-05-04 23:52 | -34.30702 | -58.87963 | 6451 ft | 301 kts | 99° |
| 2026-05-04 23:52 | -34.31070 | -58.85495 | 6133 ft | 294 kts | 99° |
| 2026-05-04 23:53 | -34.31427 | -58.83093 | 5819 ft | 286 kts | 99° |
| 2026-05-04 23:53 | -34.31773 | -58.80761 | 5524 ft | 278 kts | 99° |
| 2026-05-04 23:53 | -34.32111 | -58.78485 | 5241 ft | 272 kts | 99° |
| 2026-05-04 23:53 | -34.32595 | -58.76317 | 4958 ft | 272 kts | 118° |
| 2026-05-04 23:54 | -34.33733 | -58.74516 | 4724 ft | 269 kts | 135° |
| 2026-05-04 23:54 | -34.35042 | -58.72901 | 4440 ft | 268 kts | 135° |
| 2026-05-04 23:54 | -34.36381 | -58.71327 | 4147 ft | 268 kts | 137° |
| 2026-05-04 23:54 | -34.37706 | -58.69754 | 3940 ft | 264 kts | 135° |
| 2026-05-04 23:55 | -34.38972 | -58.68183 | 3846 ft | 256 kts | 134° |
| 2026-05-04 23:55 | -34.40165 | -58.66626 | 3737 ft | 249 kts | 132° |
| 2026-05-04 23:55 | -34.42442 | -58.63756 | 3678 ft | 220 kts | 135° |
| 2026-05-04 23:56 | -34.43492 | -58.62468 | 3542 ft | 210 kts | 135° |
| 2026-05-04 23:56 | -34.44498 | -58.61237 | 3371 ft | 202 kts | 135° |
| 2026-05-04 23:56 | -34.45450 | -58.60052 | 3242 ft | 192 kts | 133° |
| 2026-05-04 23:56 | -34.46325 | -58.58850 | 2998 ft | 189 kts | 128° |
| 2026-05-04 23:57 | -34.47082 | -58.57607 | 2820 ft | 180 kts | 122° |
| 2026-05-04 23:57 | -34.47719 | -58.56402 | 2724 ft | 159 kts | 121° |
| 2026-05-04 23:57 | -34.48306 | -58.55273 | 2418 ft | 159 kts | 120° |
| 2026-05-04 23:57 | -34.48898 | -58.54149 | 2129 ft | 157 kts | 120° |
| 2026-05-04 23:58 | -34.49511 | -58.53049 | 1883 ft | 157 kts | 122° |
| 2026-05-04 23:58 | -34.50147 | -58.51980 | 1698 ft | 157 kts | 123° |
| 2026-05-04 23:58 | -34.50772 | -58.50905 | 1512 ft | 156 kts | 121° |
| 2026-05-04 23:58 | -34.51369 | -58.49808 | 1370 ft | 155 kts | 120° |
| 2026-05-04 23:59 | -34.51958 | -58.48705 | 1182 ft | 156 kts | 121° |
| 2026-05-04 23:59 | -34.52559 | -58.47605 | 1020 ft | 156 kts | 121° |
| 2026-05-04 23:59 | -34.53171 | -58.46518 | 835 ft | 156 kts | 122° |
| 2026-05-04 23:59 | -34.53771 | -58.45441 | 644 ft | 155 kts | 122° |
| 2026-05-05 00:00 | -34.54367 | -58.44361 | 425 ft | 153 kts | 123° |
| 2026-05-05 00:00 | -34.54567 | -58.44001 | 371 ft | 152 kts | 122° |
| 2026-05-05 00:00 | -34.55532 | -58.42259 | 29 ft | 144 kts | 121° |
| 2026-05-05 00:00 | -34.55980 | -58.41468 | 27 ft | 82 kts | 125° |
| 2026-05-05 00:01 | -34.56186 | -58.41102 | 27 ft | 29 kts | 123° |
| 2026-05-05 00:01 | -34.56234 | -58.40951 | 26 ft | 18 kts | 97° |
| 2026-05-05 00:01 | -34.56238 | -58.40871 | 28 ft | 6 kts | 93° |
| 2026-05-05 00:01 | -34.56239 | -58.40829 | 26 ft | 5 kts | 91° |
| 2026-05-05 00:02 | -34.56240 | -58.40789 | 26 ft | 5 kts | 91° |
| 2026-05-05 00:02 | -34.56231 | -58.40755 | 28 ft | 5 kts | 37° |
| 2026-05-05 00:02 | -34.56202 | -58.40762 | 26 ft | 5 kts | 317° |
| 2026-05-05 00:02 | -34.56186 | -58.40795 | 27 ft | 4 kts | 299° |
| 2026-05-05 00:03 | -34.56172 | -58.40828 | 27 ft | 4 kts | 290° |
| 2026-05-05 00:03 | -34.56162 | -58.40874 | 28 ft | 8 kts | 283° |
| 2026-05-05 00:03 | -34.56139 | -58.40948 | 27 ft | 11 kts | 306° |
| 2026-05-05 00:03 | -34.56092 | -58.41019 | 26 ft | 11 kts | 311° |
| 2026-05-05 00:04 | -34.56047 | -58.41089 | 28 ft | 10 kts | 302° |
| 2026-05-05 00:04 | -34.56007 | -58.41161 | 29 ft | 10 kts | 306° |
| 2026-05-05 00:04 | -34.55966 | -58.41229 | 27 ft | 10 kts | 306° |
| 2026-05-05 00:04 | -34.55923 | -58.41287 | 28 ft | 8 kts | 333° |
| 2026-05-05 00:05 | -34.55870 | -58.41284 | 29 ft | 7 kts | 359° |
| 2026-05-05 00:05 | -34.55841 | -58.41279 | 27 ft | 4 kts | 31° |
| 2026-05-05 00:05 | -34.55828 | -58.41269 | 27 ft | 1 kts | 36° |
| 2026-05-05 00:05 | -34.55820 | -58.41261 | 27 ft | 1 kts | 38° |
| 2026-05-05 00:06 | -34.55812 | -58.41254 | 28 ft | 1 kts | 38° |
| 2026-05-05 00:06 | -34.55806 | -58.41247 | 29 ft | 1 kts | 39° |
| 2026-05-05 00:06 | -34.55803 | -58.41245 | 26 ft | 0 kts | 39° |